sensor_id;sensor_type;location;lat;lon;timestamp;pressure;altitude;pressure_sealevel;temperature;humidity
8047;BME280;74083;42.516;23.358;2023-12-14T00:01:20;87542.50;;;8.33;64.11
8047;BME280;74083;42.516;23.358;2023-12-14T00:04:05;87534.19;;;8.32;63.78
8047;BME280;74083;42.516;23.358;2023-12-14T00:06:51;87536.31;;;8.37;63.91
8047;BME280;74083;42.516;23.358;2023-12-14T00:09:37;87530.31;;;8.28;64.13
8047;BME280;74083;42.516;23.358;2023-12-14T00:12:22;87530.19;;;8.30;63.98
8047;BME280;74083;42.516;23.358;2023-12-14T00:15:10;87525.50;;;8.36;63.59
8047;BME280;74083;42.516;23.358;2023-12-14T00:17:55;87531.28;;;8.37;63.45
8047;BME280;74083;42.516;23.358;2023-12-14T00:20:41;87529.34;;;8.40;63.49
8047;BME280;74083;42.516;23.358;2023-12-14T00:23:27;87531.19;;;8.38;63.15
8047;BME280;74083;42.516;23.358;2023-12-14T00:26:12;87538.03;;;8.36;63.50
8047;BME280;74083;42.516;23.358;2023-12-14T00:28:58;87538.63;;;8.29;63.54
8047;BME280;74083;42.516;23.358;2023-12-14T00:31:45;87534.03;;;8.34;63.65
8047;BME280;74083;42.516;23.358;2023-12-14T00:34:30;87528.59;;;8.29;63.72
8047;BME280;74083;42.516;23.358;2023-12-14T00:37:16;87528.34;;;8.32;63.53
8047;BME280;74083;42.516;23.358;2023-12-14T00:40:02;87539.19;;;8.32;63.58
8047;BME280;74083;42.516;23.358;2023-12-14T00:42:48;87532.22;;;8.25;63.75
8047;BME280;74083;42.516;23.358;2023-12-14T00:45:34;87531.78;;;8.31;63.27
8047;BME280;74083;42.516;23.358;2023-12-14T00:48:21;87530.66;;;8.24;63.34
8047;BME280;74083;42.516;23.358;2023-12-14T00:51:06;87527.69;;;8.30;63.27
8047;BME280;74083;42.516;23.358;2023-12-14T00:53:52;87526.50;;;8.34;62.86
8047;BME280;74083;42.516;23.358;2023-12-14T00:56:38;87529.72;;;8.36;62.95
8047;BME280;74083;42.516;23.358;2023-12-14T00:59:23;87532.00;;;8.28;63.33
8047;BME280;74083;42.516;23.358;2023-12-14T01:02:09;87538.53;;;8.30;63.18
8047;BME280;74083;42.516;23.358;2023-12-14T01:04:56;87529.16;;;8.32;62.90
8047;BME280;74083;42.516;23.358;2023-12-14T01:07:41;87526.75;;;8.31;62.79
8047;BME280;74083;42.516;23.358;2023-12-14T01:10:27;87529.16;;;8.32;62.71
8047;BME280;74083;42.516;23.358;2023-12-14T01:13:12;87516.97;;;8.28;63.01
8047;BME280;74083;42.516;23.358;2023-12-14T01:15:58;87515.81;;;8.32;62.37
8047;BME280;74083;42.516;23.358;2023-12-14T01:18:43;87523.47;;;8.30;62.58
8047;BME280;74083;42.516;23.358;2023-12-14T01:21:30;87526.75;;;8.31;62.05
8047;BME280;74083;42.516;23.358;2023-12-14T01:24:16;87516.22;;;8.37;61.78
8047;BME280;74083;42.516;23.358;2023-12-14T01:27:02;87524.69;;;8.36;61.64
8047;BME280;74083;42.516;23.358;2023-12-14T01:29:47;87531.03;;;8.40;61.66
8047;BME280;74083;42.516;23.358;2023-12-14T01:32:33;87528.06;;;8.46;61.36
8047;BME280;74083;42.516;23.358;2023-12-14T01:35:18;87522.59;;;8.41;61.44
8047;BME280;74083;42.516;23.358;2023-12-14T01:38:05;87519.97;;;8.42;61.24
8047;BME280;74083;42.516;23.358;2023-12-14T01:40:51;87517.75;;;8.49;61.17
8047;BME280;74083;42.516;23.358;2023-12-14T01:43:37;87511.41;;;8.45;61.49
8047;BME280;74083;42.516;23.358;2023-12-14T01:46:23;87526.59;;;8.43;61.40
8047;BME280;74083;42.516;23.358;2023-12-14T01:49:08;87508.91;;;8.45;61.67
8047;BME280;74083;42.516;23.358;2023-12-14T01:51:53;87505.47;;;8.46;61.24
8047;BME280;74083;42.516;23.358;2023-12-14T01:54:40;87505.69;;;8.43;61.14
8047;BME280;74083;42.516;23.358;2023-12-14T01:57:26;87502.84;;;8.48;61.08
8047;BME280;74083;42.516;23.358;2023-12-14T02:00:19;87510.94;;;8.51;60.95
8047;BME280;74083;42.516;23.358;2023-12-14T02:03:07;87502.34;;;8.54;60.44
8047;BME280;74083;42.516;23.358;2023-12-14T02:05:52;87510.53;;;8.56;60.73
8047;BME280;74083;42.516;23.358;2023-12-14T02:08:38;87515.41;;;8.48;61.05
8047;BME280;74083;42.516;23.358;2023-12-14T02:11:25;87515.00;;;8.52;60.67
8047;BME280;74083;42.516;23.358;2023-12-14T02:14:12;87508.91;;;8.45;61.01
8047;BME280;74083;42.516;23.358;2023-12-14T02:16:57;87513.84;;;8.35;61.49
8047;BME280;74083;42.516;23.358;2023-12-14T02:19:43;87501.31;;;8.35;61.75
8047;BME280;74083;42.516;23.358;2023-12-14T02:22:35;87503.50;;;8.29;61.94
8047;BME280;74083;42.516;23.358;2023-12-14T02:25:22;87500.28;;;8.38;61.42
8047;BME280;74083;42.516;23.358;2023-12-14T02:28:08;87503.50;;;8.29;62.06
8047;BME280;74083;42.516;23.358;2023-12-14T02:30:53;87503.06;;;8.24;62.20
8047;BME280;74083;42.516;23.358;2023-12-14T02:33:38;87502.72;;;8.28;61.67
8047;BME280;74083;42.516;23.358;2023-12-14T02:36:24;87508.53;;;8.29;61.79
8047;BME280;74083;42.516;23.358;2023-12-14T02:39:11;87490.28;;;8.27;61.74
8047;BME280;74083;42.516;23.358;2023-12-14T02:41:57;87503.25;;;8.32;61.85
8047;BME280;74083;42.516;23.358;2023-12-14T02:44:42;87483.31;;;8.30;61.67
8047;BME280;74083;42.516;23.358;2023-12-14T02:47:28;87490.84;;;8.30;61.77
8047;BME280;74083;42.516;23.358;2023-12-14T02:50:14;87493.94;;;8.23;62.23
8047;BME280;74083;42.516;23.358;2023-12-14T02:52:59;87493.75;;;8.15;62.66
8047;BME280;74083;42.516;23.358;2023-12-14T02:55:46;87493.56;;;8.07;62.95
8047;BME280;74083;42.516;23.358;2023-12-14T02:58:31;87494.91;;;8.11;62.60
8047;BME280;74083;42.516;23.358;2023-12-14T03:01:18;87499.00;;;8.12;62.37
8047;BME280;74083;42.516;23.358;2023-12-14T03:04:05;87511.56;;;8.12;62.56
8047;BME280;74083;42.516;23.358;2023-12-14T03:06:52;87504.28;;;8.09;63.06
8047;BME280;74083;42.516;23.358;2023-12-14T03:09:39;87509.03;;;8.12;62.45
8047;BME280;74083;42.516;23.358;2023-12-14T03:12:29;87506.84;;;8.18;61.99
8047;BME280;74083;42.516;23.358;2023-12-14T03:15:17;87506.06;;;8.18;62.34
8047;BME280;74083;42.516;23.358;2023-12-14T03:18:03;87500.97;;;8.08;63.12
8047;BME280;74083;42.516;23.358;2023-12-14T03:20:49;87518.03;;;8.14;62.42
8047;BME280;74083;42.516;23.358;2023-12-14T03:23:35;87500.13;;;8.19;62.08
8047;BME280;74083;42.516;23.358;2023-12-14T03:26:21;87491.31;;;8.24;61.95
8047;BME280;74083;42.516;23.358;2023-12-14T03:29:08;87500.53;;;8.24;61.81
8047;BME280;74083;42.516;23.358;2023-12-14T03:31:54;87504.44;;;8.17;62.52
8047;BME280;74083;42.516;23.358;2023-12-14T03:34:39;87494.78;;;8.12;62.60
8047;BME280;74083;42.516;23.358;2023-12-14T03:37:25;87502.44;;;8.11;62.61
8047;BME280;74083;42.516;23.358;2023-12-14T03:40:10;87495.84;;;8.10;62.38
8047;BME280;74083;42.516;23.358;2023-12-14T03:42:56;87499.69;;;8.14;62.64
8047;BME280;74083;42.516;23.358;2023-12-14T03:45:42;87493.84;;;8.13;62.42
8047;BME280;74083;42.516;23.358;2023-12-14T03:48:29;87498.03;;;8.24;62.10
8047;BME280;74083;42.516;23.358;2023-12-14T03:51:17;87496.19;;;8.26;62.00
8047;BME280;74083;42.516;23.358;2023-12-14T03:54:03;87486.16;;;8.26;61.86
8047;BME280;74083;42.516;23.358;2023-12-14T03:56:49;87495.19;;;8.28;61.67
8047;BME280;74083;42.516;23.358;2023-12-14T03:59:39;87493.13;;;8.33;61.32
8047;BME280;74083;42.516;23.358;2023-12-14T04:02:26;87496.78;;;8.29;61.90
8047;BME280;74083;42.516;23.358;2023-12-14T04:05:12;87488.22;;;8.32;62.18
8047;BME280;74083;42.516;23.358;2023-12-14T04:07:57;87485.25;;;8.27;62.25
8047;BME280;74083;42.516;23.358;2023-12-14T04:10:43;87500.91;;;8.30;61.92
8047;BME280;74083;42.516;23.358;2023-12-14T04:13:28;87494.59;;;8.36;61.64
8047;BME280;74083;42.516;23.358;2023-12-14T04:16:14;87477.13;;;8.34;61.90
8047;BME280;74083;42.516;23.358;2023-12-14T04:19:00;87478.16;;;8.32;62.01
8047;BME280;74083;42.516;23.358;2023-12-14T04:21:46;87487.47;;;8.41;61.52
8047;BME280;74083;42.516;23.358;2023-12-14T04:24:32;87492.19;;;8.34;62.03
8047;BME280;74083;42.516;23.358;2023-12-14T04:27:17;87511.22;;;8.37;61.60
8047;BME280;74083;42.516;23.358;2023-12-14T04:30:04;87495.63;;;8.33;61.73
8047;BME280;74083;42.516;23.358;2023-12-14T04:32:54;87495.13;;;8.39;61.38
8047;BME280;74083;42.516;23.358;2023-12-14T04:35:41;87488.88;;;8.34;62.02
8047;BME280;74083;42.516;23.358;2023-12-14T04:38:27;87483.84;;;8.34;62.04
8047;BME280;74083;42.516;23.358;2023-12-14T04:41:12;87491.03;;;8.38;61.76
8047;BME280;74083;42.516;23.358;2023-12-14T04:43:58;87489.00;;;8.32;62.15
8047;BME280;74083;42.516;23.358;2023-12-14T04:46:43;87498.81;;;8.35;62.05
8047;BME280;74083;42.516;23.358;2023-12-14T04:49:29;87507.38;;;8.33;62.09
8047;BME280;74083;42.516;23.358;2023-12-14T04:52:17;87496.53;;;8.32;62.01
8047;BME280;74083;42.516;23.358;2023-12-14T04:55:03;87502.13;;;8.25;62.48
8047;BME280;74083;42.516;23.358;2023-12-14T04:57:48;87492.88;;;8.25;62.13
8047;BME280;74083;42.516;23.358;2023-12-14T05:00:34;87494.06;;;8.21;62.65
8047;BME280;74083;42.516;23.358;2023-12-14T05:03:19;87506.03;;;8.29;62.02
8047;BME280;74083;42.516;23.358;2023-12-14T05:06:05;87495.63;;;8.33;62.28
8047;BME280;74083;42.516;23.358;2023-12-14T05:08:52;87491.63;;;8.52;61.20
8047;BME280;74083;42.516;23.358;2023-12-14T05:11:39;87484.88;;;8.52;61.28
8047;BME280;74083;42.516;23.358;2023-12-14T05:14:25;87486.72;;;8.50;61.31
8047;BME280;74083;42.516;23.358;2023-12-14T05:17:13;87480.41;;;8.56;61.24
8047;BME280;74083;42.516;23.358;2023-12-14T05:19:59;87472.41;;;8.62;60.81
8047;BME280;74083;42.516;23.358;2023-12-14T05:22:45;87485.34;;;8.67;60.72
8047;BME280;74083;42.516;23.358;2023-12-14T05:25:32;87502.59;;;8.51;61.50
8047;BME280;74083;42.516;23.358;2023-12-14T05:28:18;87501.06;;;8.59;61.19
8047;BME280;74083;42.516;23.358;2023-12-14T05:31:03;87499.22;;;8.61;60.96
8047;BME280;74083;42.516;23.358;2023-12-14T05:33:49;87500.63;;;8.54;61.48
8047;BME280;74083;42.516;23.358;2023-12-14T05:36:34;87490.03;;;8.51;61.67
8047;BME280;74083;42.516;23.358;2023-12-14T05:39:21;87500.56;;;8.65;60.94
8047;BME280;74083;42.516;23.358;2023-12-14T05:42:08;87486.41;;;8.64;61.21
8047;BME280;74083;42.516;23.358;2023-12-14T05:44:54;87481.56;;;8.72;60.97
8047;BME280;74083;42.516;23.358;2023-12-14T05:47:39;87485.09;;;8.70;60.86
8047;BME280;74083;42.516;23.358;2023-12-14T05:50:25;87486.88;;;8.79;60.46
8047;BME280;74083;42.516;23.358;2023-12-14T05:53:11;87489.03;;;8.83;60.68
8047;BME280;74083;42.516;23.358;2023-12-14T05:55:57;87497.41;;;8.73;60.99
8047;BME280;74083;42.516;23.358;2023-12-14T05:58:45;87489.13;;;8.82;60.58
8047;BME280;74083;42.516;23.358;2023-12-14T06:01:30;87478.44;;;8.80;60.45
8047;BME280;74083;42.516;23.358;2023-12-14T06:04:15;87491.53;;;8.83;60.38
8047;BME280;74083;42.516;23.358;2023-12-14T06:07:02;87474.63;;;8.85;60.60
8047;BME280;74083;42.516;23.358;2023-12-14T06:09:47;87486.63;;;8.82;60.73
8047;BME280;74083;42.516;23.358;2023-12-14T06:12:33;87483.34;;;8.91;60.17
8047;BME280;74083;42.516;23.358;2023-12-14T06:15:20;87481.59;;;8.82;60.48
8047;BME280;74083;42.516;23.358;2023-12-14T06:18:06;87486.78;;;8.90;59.87
8047;BME280;74083;42.516;23.358;2023-12-14T06:20:52;87519.72;;;8.96;59.83
8047;BME280;74083;42.516;23.358;2023-12-14T06:23:37;87497.63;;;8.90;60.28
8047;BME280;74083;42.516;23.358;2023-12-14T06:26:23;87504.00;;;8.94;60.21
8047;BME280;74083;42.516;23.358;2023-12-14T06:29:08;87501.09;;;8.99;60.15
8047;BME280;74083;42.516;23.358;2023-12-14T06:31:55;87503.31;;;8.92;60.70
8047;BME280;74083;42.516;23.358;2023-12-14T06:34:41;87509.03;;;8.94;60.68
8047;BME280;74083;42.516;23.358;2023-12-14T06:37:27;87495.16;;;9.00;60.59
8047;BME280;74083;42.516;23.358;2023-12-14T06:40:13;87508.22;;;8.94;60.69
8047;BME280;74083;42.516;23.358;2023-12-14T06:42:58;87525.66;;;8.95;60.94
8047;BME280;74083;42.516;23.358;2023-12-14T06:45:44;87522.75;;;8.90;61.03
8047;BME280;74083;42.516;23.358;2023-12-14T06:48:31;87511.09;;;8.89;61.25
8047;BME280;74083;42.516;23.358;2023-12-14T06:51:17;87521.84;;;8.91;61.14
8047;BME280;74083;42.516;23.358;2023-12-14T06:54:03;87524.34;;;8.91;61.18
8047;BME280;74083;42.516;23.358;2023-12-14T06:56:48;87532.19;;;8.98;60.81
8047;BME280;74083;42.516;23.358;2023-12-14T06:59:33;87521.19;;;8.99;60.81
8047;BME280;74083;42.516;23.358;2023-12-14T07:02:19;87534.94;;;8.95;60.77
8047;BME280;74083;42.516;23.358;2023-12-14T07:05:06;87535.06;;;8.93;61.37
8047;BME280;74083;42.516;23.358;2023-12-14T07:07:52;87538.53;;;9.02;60.76
8047;BME280;74083;42.516;23.358;2023-12-14T07:10:38;87543.00;;;8.98;61.01
8047;BME280;74083;42.516;23.358;2023-12-14T07:13:24;87537.38;;;9.06;60.84
8047;BME280;74083;42.516;23.358;2023-12-14T07:16:10;87529.44;;;9.11;60.44
8047;BME280;74083;42.516;23.358;2023-12-14T07:18:56;87524.25;;;9.02;61.09
8047;BME280;74083;42.516;23.358;2023-12-14T07:21:44;87531.28;;;9.09;60.84
8047;BME280;74083;42.516;23.358;2023-12-14T07:24:30;87532.03;;;8.99;61.07
8047;BME280;74083;42.516;23.358;2023-12-14T07:27:16;87552.81;;;9.01;61.25
8047;BME280;74083;42.516;23.358;2023-12-14T07:30:02;87554.69;;;9.09;61.30
8047;BME280;74083;42.516;23.358;2023-12-14T07:32:47;87552.31;;;9.08;61.22
8047;BME280;74083;42.516;23.358;2023-12-14T07:35:33;87559.69;;;8.99;61.76
8047;BME280;74083;42.516;23.358;2023-12-14T07:38:21;87541.19;;;9.10;61.40
8047;BME280;74083;42.516;23.358;2023-12-14T07:41:07;87562.59;;;9.05;61.52
8047;BME280;74083;42.516;23.358;2023-12-14T07:43:52;87552.56;;;9.05;61.50
8047;BME280;74083;42.516;23.358;2023-12-14T07:46:38;87554.06;;;9.17;61.34
8047;BME280;74083;42.516;23.358;2023-12-14T07:49:26;87569.16;;;9.17;61.35
8047;BME280;74083;42.516;23.358;2023-12-14T07:52:12;87558.09;;;9.29;60.98
8047;BME280;74083;42.516;23.358;2023-12-14T07:55:00;87552.34;;;9.17;61.50
8047;BME280;74083;42.516;23.358;2023-12-14T07:57:47;87551.56;;;9.17;61.45
8047;BME280;74083;42.516;23.358;2023-12-14T08:00:32;87560.31;;;9.22;61.42
8047;BME280;74083;42.516;23.358;2023-12-14T08:03:19;87552.34;;;9.17;61.60
8047;BME280;74083;42.516;23.358;2023-12-14T08:06:05;87556.22;;;9.31;61.30
8047;BME280;74083;42.516;23.358;2023-12-14T08:08:51;87577.69;;;9.35;61.12
8047;BME280;74083;42.516;23.358;2023-12-14T08:11:38;87544.47;;;9.31;61.63
8047;BME280;74083;42.516;23.358;2023-12-14T08:14:23;87567.63;;;9.35;61.64
8047;BME280;74083;42.516;23.358;2023-12-14T08:17:09;87561.06;;;9.43;61.77
8047;BME280;74083;42.516;23.358;2023-12-14T08:19:55;87561.19;;;9.51;61.43
8047;BME280;74083;42.516;23.358;2023-12-14T08:22:41;87555.13;;;9.54;61.41
8047;BME280;74083;42.516;23.358;2023-12-14T08:25:28;87559.38;;;9.63;60.99
8047;BME280;74083;42.516;23.358;2023-12-14T08:28:16;87565.72;;;9.57;61.02
8047;BME280;74083;42.516;23.358;2023-12-14T08:31:02;87562.28;;;9.58;60.94
8047;BME280;74083;42.516;23.358;2023-12-14T08:33:48;87562.53;;;9.55;61.24
8047;BME280;74083;42.516;23.358;2023-12-14T08:36:33;87548.25;;;9.56;61.42
8047;BME280;74083;42.516;23.358;2023-12-14T08:39:20;87555.22;;;9.43;61.88
8047;BME280;74083;42.516;23.358;2023-12-14T08:42:05;87558.94;;;9.39;61.79
8047;BME280;74083;42.516;23.358;2023-12-14T08:44:52;87551.38;;;9.39;62.00
8047;BME280;74083;42.516;23.358;2023-12-14T08:47:38;87544.25;;;9.44;61.85
8047;BME280;74083;42.516;23.358;2023-12-14T08:50:24;87544.66;;;9.49;61.75
8047;BME280;74083;42.516;23.358;2023-12-14T08:53:10;87551.66;;;9.45;61.82
8047;BME280;74083;42.516;23.358;2023-12-14T08:55:56;87569.25;;;9.45;61.96
8047;BME280;74083;42.516;23.358;2023-12-14T08:58:41;87572.00;;;9.33;62.25
8047;BME280;74083;42.516;23.358;2023-12-14T09:01:28;87576.38;;;9.40;62.26
8047;BME280;74083;42.516;23.358;2023-12-14T09:04:14;87564.47;;;9.33;62.54
8047;BME280;74083;42.516;23.358;2023-12-14T09:06:59;87556.81;;;9.44;62.56
8047;BME280;74083;42.516;23.358;2023-12-14T09:09:45;87563.16;;;9.38;62.46
8047;BME280;74083;42.516;23.358;2023-12-14T09:12:31;87562.84;;;9.32;62.85
8047;BME280;74083;42.516;23.358;2023-12-14T09:15:16;87554.13;;;9.26;62.81
8047;BME280;74083;42.516;23.358;2023-12-14T09:18:03;87558.13;;;9.38;62.61
8047;BME280;74083;42.516;23.358;2023-12-14T09:20:49;87552.97;;;9.40;62.63
8047;BME280;74083;42.516;23.358;2023-12-14T09:23:35;87561.00;;;9.34;63.16
8047;BME280;74083;42.516;23.358;2023-12-14T09:26:21;87554.41;;;9.33;63.24
8047;BME280;74083;42.516;23.358;2023-12-14T09:29:06;87559.94;;;9.27;63.43
8047;BME280;74083;42.516;23.358;2023-12-14T09:31:52;87566.53;;;9.28;63.22
8047;BME280;74083;42.516;23.358;2023-12-14T09:34:40;87570.69;;;9.38;62.80
8047;BME280;74083;42.516;23.358;2023-12-14T09:37:26;87569.91;;;9.38;62.84
8047;BME280;74083;42.516;23.358;2023-12-14T09:40:12;87562.59;;;9.35;62.93
8047;BME280;74083;42.516;23.358;2023-12-14T09:42:58;87569.56;;;9.22;63.50
8047;BME280;74083;42.516;23.358;2023-12-14T09:45:45;87579.34;;;9.25;64.00
8047;BME280;74083;42.516;23.358;2023-12-14T09:48:32;87586.28;;;9.32;63.65
8047;BME280;74083;42.516;23.358;2023-12-14T09:51:19;87581.16;;;9.43;63.18
8047;BME280;74083;42.516;23.358;2023-12-14T09:54:07;87568.53;;;9.34;63.40
8047;BME280;74083;42.516;23.358;2023-12-14T09:56:54;87574.13;;;9.37;63.43
8047;BME280;74083;42.516;23.358;2023-12-14T09:59:39;87581.81;;;9.36;63.58
8047;BME280;74083;42.516;23.358;2023-12-14T10:02:27;87574.38;;;9.34;63.47
8047;BME280;74083;42.516;23.358;2023-12-14T10:05:12;87570.66;;;9.29;63.54
8047;BME280;74083;42.516;23.358;2023-12-14T10:07:59;87575.22;;;9.14;64.19
8047;BME280;74083;42.516;23.358;2023-12-14T10:10:46;87589.66;;;9.22;63.88
8047;BME280;74083;42.516;23.358;2023-12-14T10:13:37;87578.69;;;9.23;64.04
8047;BME280;74083;42.516;23.358;2023-12-14T10:16:29;87574.63;;;9.31;63.60
8047;BME280;74083;42.516;23.358;2023-12-14T10:19:17;87578.44;;;9.26;64.17
8047;BME280;74083;42.516;23.358;2023-12-14T10:22:03;87576.31;;;9.21;64.15
8047;BME280;74083;42.516;23.358;2023-12-14T10:24:50;87571.56;;;9.28;63.92
8047;BME280;74083;42.516;23.358;2023-12-14T10:27:37;87574.38;;;9.34;63.82
8047;BME280;74083;42.516;23.358;2023-12-14T10:30:23;87573.88;;;9.40;63.82
8047;BME280;74083;42.516;23.358;2023-12-14T10:33:08;87575.34;;;9.43;63.68
8047;BME280;74083;42.516;23.358;2023-12-14T10:35:54;87568.47;;;9.45;63.38
8047;BME280;74083;42.516;23.358;2023-12-14T10:38:40;87576.28;;;9.42;63.36
8047;BME280;74083;42.516;23.358;2023-12-14T10:41:31;87570.56;;;9.40;63.43
8047;BME280;74083;42.516;23.358;2023-12-14T10:44:18;87575.34;;;9.43;63.43
8047;BME280;74083;42.516;23.358;2023-12-14T10:47:06;87552.19;;;9.49;63.31
8047;BME280;74083;42.516;23.358;2023-12-14T10:49:54;87571.50;;;9.39;63.57
8047;BME280;74083;42.516;23.358;2023-12-14T10:52:40;87576.13;;;9.43;63.44
8047;BME280;74083;42.516;23.358;2023-12-14T10:55:31;87581.31;;;9.42;63.44
8047;BME280;74083;42.516;23.358;2023-12-14T10:58:20;87581.13;;;9.34;63.92
8047;BME280;74083;42.516;23.358;2023-12-14T11:01:06;87582.06;;;9.33;63.71
8047;BME280;74083;42.516;23.358;2023-12-14T11:03:54;87574.16;;;9.47;63.29
8047;BME280;74083;42.516;23.358;2023-12-14T11:06:40;87575.84;;;9.37;63.85
8047;BME280;74083;42.516;23.358;2023-12-14T11:09:31;87577.47;;;9.47;63.26
8047;BME280;74083;42.516;23.358;2023-12-14T11:12:19;87575.75;;;9.48;63.11
8047;BME280;74083;42.516;23.358;2023-12-14T11:15:09;87596.91;;;9.45;63.27
8047;BME280;74083;42.516;23.358;2023-12-14T11:18:20;87602.47;;;9.49;63.56
8047;BME280;74083;42.516;23.358;2023-12-14T11:21:06;87594.28;;;9.47;63.52
8047;BME280;74083;42.516;23.358;2023-12-14T11:23:52;87590.59;;;9.51;63.18
8047;BME280;74083;42.516;23.358;2023-12-14T11:26:38;87609.31;;;9.37;64.01
8047;BME280;74083;42.516;23.358;2023-12-14T11:29:25;87601.06;;;9.26;64.08
8047;BME280;74083;42.516;23.358;2023-12-14T11:32:13;87600.75;;;9.19;64.28
8047;BME280;74083;42.516;23.358;2023-12-14T11:34:59;87614.84;;;9.31;63.84
8047;BME280;74083;42.516;23.358;2023-12-14T11:37:45;87621.78;;;9.48;63.13
8047;BME280;74083;42.516;23.358;2023-12-14T11:40:30;87618.38;;;9.49;63.46
8047;BME280;74083;42.516;23.358;2023-12-14T11:43:17;87624.03;;;9.42;63.48
8047;BME280;74083;42.516;23.358;2023-12-14T11:46:04;87627.66;;;9.28;63.97
8047;BME280;74083;42.516;23.358;2023-12-14T11:48:51;87629.66;;;8.83;66.17
8047;BME280;74083;42.516;23.358;2023-12-14T11:51:37;87630.69;;;8.81;66.64
8047;BME280;74083;42.516;23.358;2023-12-14T11:54:24;87644.53;;;8.75;66.82
8047;BME280;74083;42.516;23.358;2023-12-14T11:57:10;87627.56;;;8.68;67.08
8047;BME280;74083;42.516;23.358;2023-12-14T11:59:58;87636.72;;;8.58;68.03
8047;BME280;74083;42.516;23.358;2023-12-14T12:02:44;87633.16;;;8.60;67.61
8047;BME280;74083;42.516;23.358;2023-12-14T12:05:37;87631.28;;;8.53;68.54
8047;BME280;74083;42.516;23.358;2023-12-14T12:08:23;87648.19;;;8.51;68.50
8047;BME280;74083;42.516;23.358;2023-12-14T12:11:08;87639.97;;;8.49;68.38
8047;BME280;74083;42.516;23.358;2023-12-14T12:13:54;87647.25;;;8.52;68.00
8047;BME280;74083;42.516;23.358;2023-12-14T12:16:40;87655.09;;;8.58;67.87
8047;BME280;74083;42.516;23.358;2023-12-14T12:19:25;87650.22;;;8.45;68.35
8047;BME280;74083;42.516;23.358;2023-12-14T12:22:12;87647.63;;;8.47;68.57
8047;BME280;74083;42.516;23.358;2023-12-14T12:24:58;87646.25;;;8.43;68.81
8047;BME280;74083;42.516;23.358;2023-12-14T12:27:44;87638.63;;;8.44;68.29
8047;BME280;74083;42.516;23.358;2023-12-14T12:30:31;87667.38;;;8.40;68.56
8047;BME280;74083;42.516;23.358;2023-12-14T12:33:16;87637.38;;;8.39;68.27
8047;BME280;74083;42.516;23.358;2023-12-14T12:36:02;87649.25;;;8.37;67.98
8047;BME280;74083;42.516;23.358;2023-12-14T12:38:49;87655.88;;;8.38;68.20
8047;BME280;74083;42.516;23.358;2023-12-14T12:41:35;87644.22;;;8.26;68.52
8047;BME280;74083;42.516;23.358;2023-12-14T12:44:21;87646.97;;;8.23;69.06
8047;BME280;74083;42.516;23.358;2023-12-14T12:47:06;87648.00;;;8.20;69.18
8047;BME280;74083;42.516;23.358;2023-12-14T12:49:52;87654.50;;;8.23;68.64
8047;BME280;74083;42.516;23.358;2023-12-14T12:52:38;87653.69;;;8.22;68.78
8047;BME280;74083;42.516;23.358;2023-12-14T12:55:25;87640.06;;;8.15;69.07
8047;BME280;74083;42.516;23.358;2023-12-14T12:58:11;87644.59;;;8.10;68.63
8047;BME280;74083;42.516;23.358;2023-12-14T13:00:58;87644.13;;;8.16;68.48
8047;BME280;74083;42.516;23.358;2023-12-14T13:03:43;87662.63;;;8.15;68.36
8047;BME280;74083;42.516;23.358;2023-12-14T13:06:29;87653.97;;;8.08;68.82
8047;BME280;74083;42.516;23.358;2023-12-14T13:09:15;87646.69;;;8.05;68.64
8047;BME280;74083;42.516;23.358;2023-12-14T13:12:03;87647.00;;;8.12;68.34
8047;BME280;74083;42.516;23.358;2023-12-14T13:14:49;87644.38;;;8.13;68.55
8047;BME280;74083;42.516;23.358;2023-12-14T13:17:34;87658.41;;;8.16;68.29
8047;BME280;74083;42.516;23.358;2023-12-14T13:20:20;87663.66;;;8.13;67.96
8047;BME280;74083;42.516;23.358;2023-12-14T13:23:06;87668.22;;;8.19;67.54
8047;BME280;74083;42.516;23.358;2023-12-14T13:25:51;87654.63;;;8.10;68.23
8047;BME280;74083;42.516;23.358;2023-12-14T13:28:38;87651.47;;;8.08;68.34
8047;BME280;74083;42.516;23.358;2023-12-14T13:31:24;87658.09;;;8.09;67.92
8047;BME280;74083;42.516;23.358;2023-12-14T13:34:09;87665.00;;;8.17;67.44
8047;BME280;74083;42.516;23.358;2023-12-14T13:36:55;87660.69;;;8.19;67.38
8047;BME280;74083;42.516;23.358;2023-12-14T13:39:40;87658.75;;;8.11;67.59
8047;BME280;74083;42.516;23.358;2023-12-14T13:42:27;87664.44;;;8.13;67.31
8047;BME280;74083;42.516;23.358;2023-12-14T13:45:14;87654.41;;;8.13;67.61
8047;BME280;74083;42.516;23.358;2023-12-14T13:47:59;87641.75;;;8.15;67.29
8047;BME280;74083;42.516;23.358;2023-12-14T13:50:44;87642.00;;;8.12;66.97
8047;BME280;74083;42.516;23.358;2023-12-14T13:53:30;87649.97;;;8.17;66.92
8047;BME280;74083;42.516;23.358;2023-12-14T13:56:16;87648.38;;;8.16;67.04
8047;BME280;74083;42.516;23.358;2023-12-14T13:59:01;87642.66;;;8.14;66.92
8047;BME280;74083;42.516;23.358;2023-12-14T14:01:49;87657.63;;;8.15;67.10
8047;BME280;74083;42.516;23.358;2023-12-14T14:04:35;87670.03;;;8.17;66.95
8047;BME280;74083;42.516;23.358;2023-12-14T14:07:20;87666.81;;;8.26;66.57
8047;BME280;74083;42.516;23.358;2023-12-14T14:10:07;87658.47;;;8.25;66.43
8047;BME280;74083;42.516;23.358;2023-12-14T14:12:54;87667.50;;;8.28;66.57
8047;BME280;74083;42.516;23.358;2023-12-14T14:15:40;87666.38;;;8.21;66.46
8047;BME280;74083;42.516;23.358;2023-12-14T14:18:27;87666.38;;;8.21;66.53
8047;BME280;74083;42.516;23.358;2023-12-14T14:21:12;87671.72;;;8.16;66.61
8047;BME280;74083;42.516;23.358;2023-12-14T14:23:58;87681.19;;;8.24;66.45
8047;BME280;74083;42.516;23.358;2023-12-14T14:26:43;87680.63;;;8.20;66.53
8047;BME280;74083;42.516;23.358;2023-12-14T14:29:29;87693.97;;;8.21;66.37
8047;BME280;74083;42.516;23.358;2023-12-14T14:32:14;87688.28;;;8.19;66.47
8047;BME280;74083;42.516;23.358;2023-12-14T14:35:01;87696.16;;;8.14;66.52
8047;BME280;74083;42.516;23.358;2023-12-14T14:37:47;87689.28;;;8.16;66.13
8047;BME280;74083;42.516;23.358;2023-12-14T14:40:34;87680.75;;;8.19;66.13
8047;BME280;74083;42.516;23.358;2023-12-14T14:43:19;87684.03;;;8.19;66.13
8047;BME280;74083;42.516;23.358;2023-12-14T14:46:06;87701.38;;;8.22;66.01
8047;BME280;74083;42.516;23.358;2023-12-14T14:48:52;87688.38;;;8.17;66.15
8047;BME280;74083;42.516;23.358;2023-12-14T14:51:40;87698.56;;;8.16;66.39